Time;durP1;ratioP1;P1;durP2;ratioP2;P2;SDS_P1;SDS_P2;PMS_P1;PMS_P2;Temp;Humidity;BMP_temperature;BMP_pressure;BME280_temperature;BME280_humidity;BME280_pressure;Samples;Min_cycle;Max_cycle;Signal;HPM_P1;HPM_P2
2021/11/25 00:00:35;;;;;;;21.48;10.95;;;;;;;6.31;86.91;98579.78;5101622;28;20040;-92
2021/11/25 00:03:02;;;;;;;20.67;10.73;;;;;;;6.29;86.95;98574.53;5101582;28;20044;-93
2021/11/25 00:05:30;;;;;;;18.63;10.95;;;;;;;6.30;86.77;98583.34;5101883;28;20052;-94
2021/11/25 00:07:58;;;;;;;20.48;9.77;;;;;;;6.16;87.02;98573.81;5101428;28;20064;-93
2021/11/25 00:10:24;;;;;;;23.08;11.13;;;;;;;6.07;87.48;98576.59;5100817;28;20055;-93
2021/11/25 00:12:53;;;;;;;24.08;11.20;;;;;;;6.06;87.30;98593.31;5100765;28;20044;-93
2021/11/25 00:15:21;;;;;;;22.58;12.10;;;;;;;6.09;88.05;98613.50;5102002;28;20074;-93
2021/11/25 00:17:47;;;;;;;23.45;11.55;;;;;;;5.86;88.55;98587.34;5101228;28;20036;-93
2021/11/25 00:20:14;;;;;;;22.17;11.77;;;;;;;5.85;88.33;98585.59;5100065;28;20040;-95
2021/11/25 00:22:42;;;;;;;25.58;12.15;;;;;;;5.98;88.32;98600.44;5099151;28;20063;-94
2021/11/25 00:25:09;;;;;;;23.27;11.48;;;;;;;6.01;88.52;98596.88;5098915;28;20064;-93
2021/11/25 00:27:36;;;;;;;26.17;11.68;;;;;;;5.99;88.29;98567.88;5099046;28;20048;-93
2021/11/25 00:30:06;;;;;;;22.15;11.73;;;;;;;6.12;87.94;98581.81;5098543;28;20048;-93
2021/11/25 00:32:35;;;;;;;22.20;12.30;;;;;;;6.09;87.77;98563.34;5099355;28;20052;-95
2021/11/25 00:35:01;;;;;;;20.70;11.02;;;;;;;6.20;87.69;98561.44;5098626;28;20048;-93
2021/11/25 00:37:27;;;;;;;22.50;10.77;;;;;;;6.38;87.45;98561.22;5100332;28;20052;-93
2021/11/25 00:39:53;;;;;;;21.75;11.02;;;;;;;6.47;86.49;98548.78;5100455;28;20139;-93
2021/11/25 00:42:19;;;;;;;18.98;9.85;;;;;;;6.43;86.49;98545.28;5099576;28;20051;-93
2021/11/25 00:44:45;;;;;;;20.92;10.57;;;;;;;6.52;86.34;98553.09;5100118;28;20077;-96
2021/11/25 00:47:15;;;;;;;18.25;9.23;;;;;;;6.55;85.93;98558.34;5100058;28;20130;-94
2021/11/25 00:49:44;;;;;;;19.25;10.90;;;;;;;6.60;85.11;98563.56;5098992;28;20505;-94
2021/11/25 00:52:10;;;;;;;17.92;10.20;;;;;;;6.60;85.46;98557.41;5100381;28;20091;-94
2021/11/25 00:54:36;;;;;;;20.55;10.20;;;;;;;6.57;86.37;98551.28;5099858;28;20040;-94
2021/11/25 00:57:09;;;;;;;19.42;10.25;;;;;;;6.86;85.68;98580.81;5099633;28;20036;-95
2021/11/25 00:59:35;;;;;;;18.33;9.83;;;;;;;6.81;85.51;98558.84;5099081;28;20059;-93
2021/11/25 01:02:02;;;;;;;22.05;10.90;;;;;;;6.69;85.28;98530.84;5099141;28;20036;-95
2021/11/25 01:04:29;;;;;;;19.65;9.85;;;;;;;7.00;85.35;98565.56;5100447;28;20043;-94
2021/11/25 01:06:55;;;;;;;21.83;9.80;;;;;;;6.93;84.13;98532.22;5098374;28;20048;-94
2021/11/25 01:09:23;;;;;;;20.77;10.65;;;;;;;6.85;84.63;98526.16;5099714;28;20168;-93
2021/11/25 01:11:49;;;;;;;19.30;10.85;;;;;;;6.85;84.81;98536.75;5099542;28;20063;-95
2021/11/25 01:14:15;;;;;;;23.50;11.00;;;;;;;6.90;84.81;98537.56;5099156;28;20044;-95
2021/11/25 01:16:41;;;;;;;20.00;10.45;;;;;;;7.10;84.35;98538.09;5098826;28;20044;-93
2021/11/25 01:19:07;;;;;;;21.67;10.65;;;;;;;7.11;84.35;98521.34;5094435;28;20074;-94
2021/11/25 01:21:35;;;;;;;20.08;10.10;;;;;;;7.16;83.78;98511.56;5099064;28;20040;-93
2021/11/25 01:24:01;;;;;;;22.25;9.93;;;;;;;7.18;83.80;98503.59;5089052;28;20040;-93
2021/11/25 01:26:27;;;;;;;20.58;9.48;;;;;;;7.18;83.27;98485.09;5099787;28;20040;-93
2021/11/25 01:28:55;;;;;;;23.02;10.90;;;;;;;7.14;83.12;98486.91;5098848;28;20588;-93
2021/11/25 01:31:21;;;;;;;19.95;9.40;;;;;;;7.40;83.10;98514.66;5100108;28;20051;-93
2021/11/25 01:33:47;;;;;;;19.60;9.02;;;;;;;7.25;82.83;98483.22;5099588;28;20185;-94
2021/11/25 01:36:13;;;;;;;20.92;10.60;;;;;;;7.15;82.94;98467.47;5098511;28;20047;-92
2021/11/25 01:38:40;;;;;;;21.10;9.93;;;;;;;7.10;83.41;98469.34;5099263;28;20104;-92
2021/11/25 01:41:06;;;;;;;17.10;9.60;;;;;;;7.19;83.45;98473.59;5100788;28;20046;-92
2021/11/25 01:43:37;;;;;;;17.08;9.63;;;;;;;7.20;83.07;98468.28;5098333;28;20044;-94
2021/11/25 01:46:11;;;;;;;20.88;9.13;;;;;;;7.26;82.48;98469.94;5098892;28;20087;-94
2021/11/25 01:48:37;;;;;;;16.88;9.10;;;;;;;7.30;82.56;98474.28;5099366;28;20052;-95
2021/11/25 01:51:03;;;;;;;18.88;9.32;;;;;;;7.37;83.14;98490.91;5098472;28;20100;-94
2021/11/25 01:53:29;;;;;;;17.65;9.38;;;;;;;7.20;82.94;98456.84;5098864;28;20052;-94
2021/11/25 01:55:58;;;;;;;19.38;9.65;;;;;;;7.30;83.07;98461.03;5099198;28;20056;-94
2021/11/25 01:58:24;;;;;;;17.73;9.97;;;;;;;7.34;83.66;98472.44;5098602;28;20044;-93
2021/11/25 02:00:54;;;;;;;28.65;9.93;;;;;;;7.17;84.44;98438.38;5100073;28;20306;-93
2021/11/25 02:03:20;;;;;;;17.60;9.15;;;;;;;7.22;84.74;98446.22;5100462;28;20123;-93
2021/11/25 02:05:49;;;;;;;17.40;8.55;;;;;;;7.33;85.11;98454.81;5099919;28;20040;-92
2021/11/25 02:08:15;;;;;;;18.15;9.55;;;;;;;7.24;85.05;98447.94;5099314;28;20052;-94
2021/11/25 02:10:45;;;;;;;20.75;9.32;;;;;;;7.14;85.31;98426.09;5098841;28;20236;-93
2021/11/25 02:13:13;;;;;;;20.95;9.98;;;;;;;7.16;84.84;98419.00;5100343;28;20389;-92
2021/11/25 02:15:41;;;;;;;18.67;8.53;;;;;;;7.31;84.52;98440.78;5099218;28;20476;-94
2021/11/25 02:18:10;;;;;;;19.20;9.20;;;;;;;7.47;84.82;98454.56;5100001;28;20276;-93
2021/11/25 02:20:38;;;;;;;16.20;9.02;;;;;;;7.39;84.80;98452.06;5100283;28;20048;-95
2021/11/25 02:23:06;;;;;;;17.75;9.23;;;;;;;7.50;85.45;98465.94;5099427;28;20044;-94
2021/11/25 02:25:35;;;;;;;22.67;10.83;;;;;;;7.39;85.39;98441.47;5097613;28;20104;-94
2021/11/25 02:28:01;;;;;;;27.17;12.48;;;;;;;7.37;85.46;98464.44;5097277;28;20308;-93
2021/11/25 02:30:27;;;;;;;26.08;13.10;;;;;;;7.33;85.63;98465.41;5102732;28;20052;-93
2021/11/25 02:32:53;;;;;;;29.65;13.52;;;;;;;7.04;87.35;98484.44;5100711;28;20055;-95
2021/11/25 02:35:27;;;;;;;24.70;14.00;;;;;;;6.52;90.42;98438.63;5094788;28;20048;-92
2021/11/25 02:37:55;;;;;;;27.40;14.32;;;;;;;6.29;93.64;98447.78;5095023;28;20044;-92
2021/11/25 02:40:25;;;;;;;23.70;12.18;;;;;;;6.28;96.41;98421.41;5095101;28;20093;-94
2021/11/25 02:42:54;;;;;;;20.23;10.32;;;;;;;6.67;95.43;98409.31;5096939;28;20054;-93
2021/11/25 02:45:21;;;;;;;20.70;10.77;;;;;;;6.83;95.44;98393.19;5097570;28;20044;-93
2021/11/25 02:47:47;;;;;;;20.20;9.48;;;;;;;6.95;95.29;98398.25;5098465;28;20040;-94
2021/11/25 02:50:15;;;;;;;19.15;10.07;;;;;;;7.15;94.07;98429.59;5097728;28;20070;-92
2021/11/25 02:52:42;;;;;;;19.33;9.85;;;;;;;7.10;91.53;98418.25;5098883;28;20490;-93
2021/11/25 02:55:10;;;;;;;21.27;11.10;;;;;;;7.04;92.87;98427.16;5099762;28;20040;-93
2021/11/25 02:57:38;;;;;;;25.60;11.85;;;;;;;7.11;93.95;98441.13;5101248;28;20127;-93
2021/11/25 03:00:08;;;;;;;25.50;12.45;;;;;;;6.96;94.58;98437.00;5099758;28;20050;-92
2021/11/25 03:02:34;;;;;;;22.73;10.73;;;;;;;6.84;97.24;98431.94;5104056;28;20489;-93
2021/11/25 03:05:00;;;;;;;18.48;9.93;;;;;;;6.69;96.50;98414.56;5103770;28;20090;-91
2021/11/25 03:07:26;;;;;;;18.80;9.95;;;;;;;6.81;95.96;98432.88;5103524;28;20036;-93
2021/11/25 03:09:51;;;;;;;25.38;12.30;;;;;;;6.79;93.94;98426.75;5104137;28;20489;-93
2021/11/25 03:12:19;;;;;;;20.48;10.50;;;;;;;6.74;94.94;98425.94;5105998;28;20052;-93
2021/11/25 03:14:45;;;;;;;24.42;12.05;;;;;;;6.76;95.82;98446.13;5095075;28;20447;-93
2021/11/25 03:17:11;;;;;;;32.40;15.32;;;;;;;6.89;96.95;98465.31;5105548;28;20047;-91
2021/11/25 03:19:39;;;;;;;31.23;15.65;;;;;;;6.76;96.77;98456.69;5106787;28;20067;-92
2021/11/25 03:22:05;;;;;;;30.48;14.80;;;;;;;6.62;96.79;98429.66;5106922;28;20496;-94
2021/11/25 03:24:31;;;;;;;28.85;14.65;;;;;;;6.39;96.50;98430.03;5106041;28;20039;-94
2021/11/25 03:26:57;;;;;;;32.20;14.88;;;;;;;6.36;97.21;98416.88;5106268;28;20040;-94
2021/11/25 03:29:26;;;;;;;33.20;14.77;;;;;;;6.54;97.88;98461.47;5105700;28;20066;-95
2021/11/25 03:31:52;;;;;;;;;;;;;;;6.64;98.53;98475.44;5106598;28;20051;-94
2021/11/25 03:34:18;;;;;;;29.83;14.65;;;;;;;6.48;97.86;98421.06;5108600;28;19919;-94
2021/11/25 03:36:44;;;;;;;32.33;15.00;;;;;;;6.43;97.98;98409.72;5107218;28;20044;-93
2021/11/25 03:39:10;;;;;;;29.52;14.50;;;;;;;6.37;99.02;98411.56;5102940;28;20043;-94
2021/11/25 03:41:36;;;;;;;32.58;15.68;;;;;;;6.48;99.96;98421.06;5105915;28;20122;-91
2021/11/25 03:44:03;;;;;;;31.30;16.02;;;;;;;6.44;99.84;98403.53;5106603;28;20052;-94
2021/11/25 03:46:33;;;;;;;31.80;14.50;;;;;;;6.57;100.00;98424.47;5098432;28;20086;-92
2021/11/25 03:48:59;;;;;;;30.30;14.10;;;;;;;6.57;100.00;98436.78;5102961;28;20041;-92
2021/11/25 03:51:25;;;;;;;33.70;15.90;;;;;;;6.67;99.73;98442.78;5105495;28;20039;-93
2021/11/25 03:53:51;;;;;;;31.73;15.70;;;;;;;6.53;99.24;98392.84;5106239;28;20047;-94
2021/11/25 03:56:17;;;;;;;42.47;17.02;;;;;;;6.41;99.95;98377.19;5102151;28;20040;-94
2021/11/25 03:58:44;;;;;;;31.40;16.33;;;;;;;6.43;99.85;98383.31;5099692;28;20044;-93
2021/11/25 04:01:10;;;;;;;29.98;15.15;;;;;;;6.36;99.24;98370.22;5099468;28;20040;-93
2021/11/25 04:03:39;;;;;;;33.15;16.00;;;;;;;6.53;99.91;98396.34;5102473;28;20067;-91
2021/11/25 04:06:05;;;;;;;29.42;14.70;;;;;;;6.42;99.71;98376.28;5102958;28;20040;-94
2021/11/25 04:08:31;;;;;;;31.30;14.52;;;;;;;6.55;98.56;98372.56;5101303;28;20036;-94
2021/11/25 04:10:57;;;;;;;31.80;14.38;;;;;;;6.60;97.88;98381.25;5095038;28;20051;-93
2021/11/25 04:13:23;;;;;;;32.38;15.07;;;;;;;6.30;97.82;98350.94;5102117;28;20082;-94
2021/11/25 04:15:49;;;;;;;33.25;16.00;;;;;;;6.25;98.82;98351.03;5102886;28;20048;-94
2021/11/25 04:18:18;;;;;;;35.83;16.55;;;;;;;6.24;99.10;98348.41;5102580;28;20055;-93
2021/11/25 04:20:46;;;;;;;29.05;15.05;;;;;;;6.25;99.21;98351.03;5103556;28;20489;-94
2021/11/25 04:23:12;;;;;;;31.05;15.43;;;;;;;6.24;99.09;98348.41;5102640;28;20036;-94
2021/11/25 04:25:38;;;;;;;33.97;15.88;;;;;;;6.25;98.88;98351.03;5103486;28;20044;-95
2021/11/25 04:28:04;;;;;;;31.60;14.50;;;;;;;6.45;98.91;98371.81;5101931;28;20040;-92
2021/11/25 04:36:34;;;;;;;27.70;13.57;;;;;;;6.61;99.42;98376.84;5119694;27;20357;-93
2021/11/25 04:39:00;;;;;;;28.70;13.15;;;;;;;6.59;98.90;98361.00;5120457;28;20046;-94
2021/11/25 04:41:26;;;;;;;24.75;12.13;;;;;;;6.63;98.95;98349.50;5119974;28;20048;-93
2021/11/25 04:43:52;;;;;;;25.65;12.50;;;;;;;6.70;98.75;98345.84;5118927;28;20066;-94
2021/11/25 04:46:18;;;;;;;26.73;12.35;;;;;;;6.73;98.25;98353.72;5117776;28;20040;-93
2021/11/25 04:48:44;;;;;;;23.27;12.10;;;;;;;6.81;97.41;98353.59;5117022;28;20574;-94
2021/11/25 04:51:10;;;;;;;24.67;11.93;;;;;;;6.71;98.60;98347.59;5115675;28;20043;-94
2021/11/25 04:53:37;;;;;;;25.02;11.35;;;;;;;6.71;98.67;98350.22;5119499;28;20044;-94
2021/11/25 04:56:04;;;;;;;25.90;12.77;;;;;;;6.84;100.00;98356.16;5114648;28;20040;-92
2021/11/25 04:58:30;;;;;;;21.67;10.85;;;;;;;6.91;100.00;98364.84;5113095;28;20358;-91
2021/11/25 05:00:59;;;;;;;25.63;10.32;;;;;;;6.88;100.00;98335.84;5115466;28;20065;-94
2021/11/25 05:03:25;;;;;;;22.67;10.35;;;;;;;7.06;99.63;98340.75;5123020;28;20044;-93
2021/11/25 05:05:51;;;;;;;21.77;9.55;;;;;;;7.17;100.00;98361.69;5122872;28;20036;-91
2021/11/25 05:08:17;;;;;;;24.55;11.02;;;;;;;7.20;100.00;98361.66;5120724;28;20411;-91
2021/11/25 05:10:45;;;;;;;31.70;14.43;;;;;;;7.26;100.00;98372.06;5121643;28;20260;-92
2021/11/25 05:13:12;;;;;;;36.42;16.25;;;;;;;7.03;100.00;98364.63;5120285;28;20061;-92
2021/11/25 05:15:38;;;;;;;33.63;16.33;;;;;;;7.03;100.00;98372.56;5117983;28;20199;-93
2021/11/25 05:18:04;;;;;;;33.35;16.70;;;;;;;7.11;100.00;98389.16;5119992;28;20102;-94
2021/11/25 05:20:30;;;;;;;34.83;16.73;;;;;;;6.84;100.00;98361.44;5120624;28;20505;-92
2021/11/25 05:22:57;;;;;;;30.95;15.38;;;;;;;6.81;100.00;98356.22;5121572;28;20036;-92
2021/11/25 05:25:23;;;;;;;28.73;13.25;;;;;;;6.75;100.00;98333.41;5120961;28;20035;-94
2021/11/25 05:27:51;;;;;;;21.05;9.95;;;;;;;7.22;100.00;98364.25;5121630;28;20052;-93
2021/11/25 05:30:21;;;;;;;21.67;10.87;;;;;;;7.35;100.00;98326.06;5119579;28;20071;-96
2021/11/25 05:32:50;;;;;;;20.45;9.48;;;;;;;7.44;100.00;98312.66;5122216;28;20280;-96
2021/11/25 05:35:17;;;;;;;16.40;8.27;;;;;;;7.57;99.70;98319.41;5121796;28;20370;-94
2021/11/25 05:37:44;;;;;;;21.05;9.20;;;;;;;7.69;99.33;98335.91;5122371;28;20047;-94
2021/11/25 05:40:12;;;;;;;17.83;9.68;;;;;;;7.80;99.34;98349.78;5121409;28;20050;-92
2021/11/25 05:42:39;;;;;;;22.02;9.98;;;;;;;7.65;98.87;98332.44;5120949;28;20059;-93
2021/11/25 05:45:09;;;;;;;20.08;9.60;;;;;;;7.68;97.97;98327.09;5115081;28;20040;-94
2021/11/25 05:47:37;;;;;;;20.42;10.02;;;;;;;7.52;98.16;98318.63;5108073;28;20067;-95
2021/11/25 05:50:04;;;;;;;22.73;10.85;;;;;;;7.39;98.68;98314.50;5104493;28;20040;-95
2021/11/25 05:52:31;;;;;;;23.63;10.52;;;;;;;7.31;99.31;98311.19;5106914;28;20044;-95
2021/11/25 05:54:57;;;;;;;21.77;10.30;;;;;;;7.47;100.00;98344.31;5104763;28;20481;-93
2021/11/25 05:57:23;;;;;;;28.50;11.30;;;;;;;7.53;99.41;98348.63;5103822;28;20104;-94
2021/11/25 05:59:49;;;;;;;24.63;11.30;;;;;;;7.47;99.55;98351.38;5104545;28;20125;-94
2021/11/25 06:02:19;;;;;;;27.58;12.90;;;;;;;7.26;99.86;98320.97;5114030;28;20040;-95
2021/11/25 06:04:45;;;;;;;27.30;12.20;;;;;;;7.15;100.00;98326.47;5088814;28;20036;-96
2021/11/25 06:07:11;;;;;;;26.95;12.75;;;;;;;7.30;100.00;98330.56;5103913;28;20040;-95
2021/11/25 06:09:39;;;;;;;32.40;13.25;;;;;;;6.94;100.00;98306.63;5105503;28;20064;-94
2021/11/25 06:12:06;;;;;;;27.60;13.45;;;;;;;6.97;100.00;98310.09;5102668;28;20051;-93
2021/11/25 06:14:32;;;;;;;29.23;14.35;;;;;;;6.81;100.00;98299.84;5107889;28;20044;-94
2021/11/25 06:16:59;;;;;;;29.60;13.88;;;;;;;6.82;100.00;98296.31;5106705;28;20044;-93
2021/11/25 06:19:26;;;;;;;26.17;13.52;;;;;;;6.81;100.00;98299.84;5105418;28;20039;-96
2021/11/25 06:21:52;;;;;;;32.80;14.60;;;;;;;6.72;100.00;98301.78;5096356;28;20036;-95
2021/11/25 06:24:19;;;;;;;34.47;14.55;;;;;;;6.75;100.00;98285.00;5105309;28;20376;-93
2021/11/25 06:26:49;;;;;;;29.42;13.05;;;;;;;6.97;100.00;98301.28;5104019;28;20044;-95
2021/11/25 06:29:15;;;;;;;27.80;12.82;;;;;;;7.11;100.00;98320.41;5105615;28;20055;-92
2021/11/25 06:31:41;;;;;;;27.38;12.07;;;;;;;7.00;100.00;98293.28;5102505;28;20075;-93
2021/11/25 06:34:32;;;;;;;25.13;11.30;;;;;;;7.20;100.00;98306.13;5101251;28;20067;-95
2021/11/25 06:37:08;;;;;;;25.05;12.60;;;;;;;7.36;100.00;98317.22;5093331;28;20044;-95
2021/11/25 06:39:34;;;;;;;24.73;11.52;;;;;;;7.26;100.00;98286.59;5099944;28;20381;-95
2021/11/25 06:42:01;;;;;;;27.88;11.63;;;;;;;7.38;100.00;98288.97;5096562;28;20043;-94
2021/11/25 06:44:27;;;;;;;29.83;13.15;;;;;;;7.25;100.00;98275.16;5099576;28;20131;-93
2021/11/25 06:46:55;;;;;;;25.15;12.32;;;;;;;7.29;100.00;98283.91;5099933;28;20052;-94
2021/11/25 06:49:21;;;;;;;24.00;11.35;;;;;;;7.34;100.00;98309.31;5099073;28;20082;-94
2021/11/25 06:51:47;;;;;;;24.83;11.18;;;;;;;7.22;100.00;98285.75;5099372;28;20134;-94
2021/11/25 06:54:14;;;;;;;22.23;10.80;;;;;;;7.28;100.00;98268.91;5100783;28;20517;-96
2021/11/25 06:56:40;;;;;;;24.58;10.63;;;;;;;7.48;100.00;98281.69;5099581;28;20039;-94
2021/11/25 06:59:06;;;;;;;23.17;9.88;;;;;;;7.51;100.00;98286.94;5098332;28;20097;-94
2021/11/25 07:01:32;;;;;;;22.05;10.30;;;;;;;7.58;100.00;98284.09;5098201;28;20047;-95
2021/11/25 07:03:58;;;;;;;29.75;12.57;;;;;;;7.67;100.00;98280.34;5097268;28;20044;-94
2021/11/25 07:06:24;;;;;;;27.13;10.68;;;;;;;7.75;99.97;98288.13;5107065;28;20032;-96
2021/11/25 07:08:50;;;;;;;21.65;10.38;;;;;;;7.56;99.94;98264.72;5096618;28;20081;-95
2021/11/25 07:11:17;;;;;;;22.40;9.10;;;;;;;7.68;99.48;98273.31;5099180;28;20056;-94
2021/11/25 07:13:43;;;;;;;20.67;9.57;;;;;;;7.75;99.76;98285.50;5099327;28;20075;-94
2021/11/25 07:16:09;;;;;;;20.73;9.60;;;;;;;7.70;99.64;98253.84;5100362;28;20087;-96
2021/11/25 07:18:35;;;;;;;21.70;9.65;;;;;;;7.69;99.83;98252.09;5100643;28;20128;-96
2021/11/25 07:21:01;;;;;;;21.70;9.85;;;;;;;7.73;99.65;98266.13;5097433;28;20044;-96
2021/11/25 07:23:27;;;;;;;22.50;10.00;;;;;;;7.70;99.84;98268.81;5099422;28;20071;-94
2021/11/25 07:25:53;;;;;;;22.33;9.63;;;;;;;7.80;99.48;98281.81;5098477;28;20440;-95
2021/11/25 07:28:20;;;;;;;23.42;10.48;;;;;;;7.76;99.58;98290.75;5097416;28;20052;-93
2021/11/25 07:30:46;;;;;;;22.02;9.60;;;;;;;7.88;99.77;98297.53;5097098;28;20032;-96
2021/11/25 07:33:14;;;;;;;26.60;10.68;;;;;;;7.85;99.66;98286.13;5097320;28;20039;-93
2021/11/25 07:35:43;;;;;;;24.23;10.45;;;;;;;8.02;100.00;98311.31;5096685;28;20052;-95
2021/11/25 07:38:10;;;;;;;22.30;10.07;;;;;;;7.94;100.00;98299.16;5101178;28;20036;-94
2021/11/25 07:40:42;;;;;;;31.77;17.15;;;;;;;7.97;100.00;98313.19;5103447;28;20074;-93
2021/11/25 07:43:08;;;;;;;34.45;17.40;;;;;;;7.88;99.48;98320.50;5098594;28;20035;-94
2021/11/25 07:45:36;;;;;;;35.92;16.27;;;;;;;7.70;99.43;98320.00;5101267;28;20048;-93
2021/11/25 07:48:02;;;;;;;35.10;15.90;;;;;;;7.57;99.79;98305.31;5098087;28;20040;-93
2021/11/25 07:50:28;;;;;;;30.58;14.80;;;;;;;7.69;100.00;98327.97;5097229;28;20046;-95
2021/11/25 07:52:55;;;;;;;31.17;15.38;;;;;;;7.48;100.00;98301.09;5117021;28;20043;-94
2021/11/25 07:55:25;;;;;;;34.40;16.15;;;;;;;7.47;100.00;98307.28;5101321;28;20062;-94
2021/11/25 07:57:51;;;;;;;33.55;16.38;;;;;;;7.42;100.00;98306.53;5100582;28;20040;-94
2021/11/25 08:03:29;;;;;;;32.03;15.00;;;;;;;7.47;100.00;98312.56;5181802;27;20383;-94
2021/11/25 08:05:56;;;;;;;32.10;15.27;;;;;;;7.45;100.00;98302.94;5160709;27;20046;-94
2021/11/25 08:08:22;;;;;;;36.25;17.48;;;;;;;7.39;100.00;98282.75;5160793;27;20308;-95
2021/11/25 08:10:48;;;;;;;32.40;16.58;;;;;;;7.63;nan;98314.88;5157799;27;20399;-93
2021/11/25 08:13:14;;;;;;;34.83;16.30;;;;;;;7.50;100.00;98283.38;5160733;27;20046;-93
2021/11/25 08:15:41;;;;;;;29.85;16.23;;;;;;;7.52;100.00;98292.16;5162792;27;20051;-94
2021/11/25 08:18:07;;;;;;;34.58;17.13;;;;;;;7.56;100.00;98292.97;5162905;27;20047;-94
2021/11/25 08:20:35;;;;;;;34.67;17.55;;;;;;;7.57;100.00;98290.31;5162334;27;20053;-94
2021/11/25 08:23:01;;;;;;;33.95;17.27;;;;;;;7.58;100.00;98299.09;5164767;27;20080;-95
2021/11/25 08:25:29;;;;;;;34.00;16.90;;;;;;;7.59;100.00;98299.06;5164864;27;20047;-94
2021/11/25 08:27:56;;;;;;;29.30;15.90;;;;;;;7.65;100.00;98303.34;5163758;27;20057;-93
2021/11/25 08:30:24;;;;;;;36.08;18.10;;;;;;;7.67;100.00;98312.13;5163360;27;20516;-95
2021/11/25 08:32:50;;;;;;;41.30;20.20;;;;;;;7.73;100.00;98313.75;5163890;27;20149;-93
2021/11/25 08:35:17;;;;;;;39.78;20.10;;;;;;;7.75;100.00;98310.19;5164392;27;20050;-94
2021/11/25 08:37:48;;;;;;;37.22;18.80;;;;;;;7.83;100.00;98317.94;5165107;27;20043;-94
2021/11/25 08:40:15;;;;;;;37.70;18.15;;;;;;;7.84;100.00;98335.56;5164442;27;20049;-93
2021/11/25 08:42:43;;;;;;;38.22;18.33;;;;;;;7.76;100.00;98349.00;5163490;27;20031;-95
2021/11/25 08:45:10;;;;;;;41.92;18.48;;;;;;;7.63;100.00;98321.03;5159754;27;20046;-93
2021/11/25 08:47:36;;;;;;;37.67;18.17;;;;;;;7.68;100.00;98316.53;5142455;28;20039;-96
2021/11/25 08:50:03;;;;;;;35.45;17.08;;;;;;;7.68;99.67;98299.78;5159367;27;20553;-94
2021/11/25 08:52:30;;;;;;;38.67;18.75;;;;;;;7.61;99.66;98305.22;5162074;27;20124;-92
2021/11/25 08:54:57;;;;;;;39.70;19.95;;;;;;;7.63;100.00;98304.28;5163760;27;20047;-93
2021/11/25 08:57:23;;;;;;;40.58;17.80;;;;;;;7.95;100.00;98304.41;5162441;27;20049;-93
2021/11/25 08:59:49;;;;;;;34.20;16.58;;;;;;;7.99;100.00;98284.91;5163856;27;20066;-94
2021/11/25 09:02:15;;;;;;;31.50;16.30;;;;;;;8.29;100.00;98315.97;5162648;27;20550;-94
2021/11/25 09:04:41;;;;;;;30.30;15.13;;;;;;;8.27;100.00;98297.47;5163338;27;20043;-94
2021/11/25 09:07:08;;;;;;;33.05;16.88;;;;;;;8.38;100.00;98306.00;5151968;27;20052;-94
2021/11/25 09:09:34;;;;;;;48.38;22.88;;;;;;;8.52;99.74;98308.34;5152712;27;20126;-94
2021/11/25 09:12:02;;;;;;;44.25;19.20;;;;;;;8.52;99.18;98294.19;5164606;27;20039;-96
2021/11/25 09:14:28;;;;;;;37.83;19.08;;;;;;;8.64;98.98;98286.78;5150255;27;20106;-96
2021/11/25 09:16:54;;;;;;;34.50;17.65;;;;;;;8.86;97.75;98304.75;5150315;27;20104;-93
2021/11/25 09:19:21;;;;;;;45.15;18.52;;;;;;;8.93;98.01;98313.41;5149502;27;20039;-94
2021/11/25 09:21:46;;;;;;;35.65;17.20;;;;;;;8.77;97.87;98281.16;5149038;27;20047;-94
2021/11/25 09:24:13;;;;;;;30.80;17.23;;;;;;;8.68;98.86;98295.53;5147670;27;20489;-96
2021/11/25 09:26:39;;;;;;;37.15;18.75;;;;;;;8.42;99.31;98283.84;5148349;27;20496;-94
2021/11/25 09:29:09;;;;;;;35.72;18.77;;;;;;;8.48;100.00;98298.72;5148708;27;20047;-95
2021/11/25 09:31:36;;;;;;;43.80;22.45;;;;;;;8.42;100.00;98285.63;5131347;27;20480;-94
2021/11/25 09:34:04;;;;;;;42.22;22.85;;;;;;;8.49;100.00;98292.50;5149732;27;20057;-96
2021/11/25 09:36:31;;;;;;;40.00;21.17;;;;;;;8.70;100.00;98309.63;5151779;27;20043;-93
2021/11/25 09:38:58;;;;;;;40.92;20.73;;;;;;;8.54;100.00;98266.72;5150121;27;20567;-95
2021/11/25 09:41:25;;;;;;;40.95;20.13;;;;;;;8.55;100.00;98254.38;5150251;27;20420;-94
2021/11/25 09:43:52;;;;;;;45.80;21.38;;;;;;;8.59;99.51;98262.19;5151727;27;20127;-93
2021/11/25 09:46:21;;;;;;;38.38;19.05;;;;;;;8.61;98.68;98251.56;5148564;27;20092;-95
2021/11/25 09:48:48;;;;;;;42.47;18.60;;;;;;;8.79;98.08;98266.94;5149145;27;20054;-93
2021/11/25 09:51:15;;;;;;;30.65;16.13;;;;;;;9.03;97.05;98264.50;5149641;27;20060;-92
2021/11/25 09:53:41;;;;;;;40.40;19.58;;;;;;;9.25;95.23;98255.00;5131396;27;20079;-94
2021/11/25 09:56:08;;;;;;;36.85;18.30;;;;;;;9.17;93.87;98227.84;5131716;27;20064;-96
2021/11/25 09:58:36;;;;;;;34.20;17.98;;;;;;;9.06;94.01;98224.63;5147234;27;20035;-92
2021/11/25 10:01:06;;;;;;;41.35;19.23;;;;;;;9.02;95.93;98246.84;5144851;27;20062;-94
2021/11/25 10:03:35;;;;;;;40.65;20.60;;;;;;;8.80;97.08;98244.84;5144762;27;20035;-95
2021/11/25 10:06:02;;;;;;;36.40;18.00;;;;;;;8.81;96.32;98225.34;5144874;27;20078;-94
2021/11/25 10:08:30;;;;;;;37.30;17.70;;;;;;;8.99;97.14;98234.53;5145619;27;20050;-95
2021/11/25 10:11:03;;;;;;;35.80;16.67;;;;;;;8.90;96.87;98226.00;5144386;27;20463;-95
2021/11/25 10:13:42;;;;;;;36.63;16.90;;;;;;;9.03;97.90;98212.34;5144779;27;20043;-95
2021/11/25 10:16:12;;;;;;;30.25;15.55;;;;;;;9.25;96.57;98201.94;5144685;27;20072;-94
2021/11/25 10:18:40;;;;;;;32.03;16.33;;;;;;;9.39;95.95;98195.31;5144515;27;20046;-95
2021/11/25 10:21:09;;;;;;;30.15;16.08;;;;;;;9.46;96.00;98194.22;5144580;27;20491;-95
2021/11/25 10:23:36;;;;;;;29.30;13.15;;;;;;;9.52;96.50;98174.56;5146466;27;20054;-95
2021/11/25 10:26:04;;;;;;;24.25;11.52;;;;;;;9.79;92.97;98167.50;5143629;27;20539;-95
2021/11/25 10:28:37;;;;;;;36.70;16.33;;;;;;;10.07;93.29;98178.91;5143643;27;20039;-94
2021/11/25 10:31:08;;;;;;;25.17;11.40;;;;;;;10.26;90.15;98179.16;5143082;27;20043;-95
2021/11/25 10:33:43;;;;;;;20.30;9.70;;;;;;;10.19;89.67;98160.81;5141788;27;20039;-95
2021/11/25 10:42:05;;;;;;;17.27;9.13;;;;;;;10.69;87.96;98139.50;5108039;27;20364;-95
2021/11/25 10:44:33;;;;;;;17.05;9.30;;;;;;;10.85;87.28;98159.28;5072476;28;20040;-94
2021/11/25 10:47:04;;;;;;;16.45;9.13;;;;;;;11.01;86.19;98169.34;5072671;28;20053;-95
2021/11/25 10:49:49;;;;;;;19.83;9.45;;;;;;;10.89;86.48;98160.91;5072463;28;20049;-94
2021/11/25 10:52:20;;;;;;;20.20;9.65;;;;;;;10.79;87.75;98154.19;5072431;28;20048;-94
2021/11/25 10:54:49;;;;;;;20.85;11.40;;;;;;;10.63;90.67;98161.91;5072438;28;20159;-94
2021/11/25 10:57:18;;;;;;;22.38;10.88;;;;;;;10.48;89.77;98163.31;5073103;28;20068;-94
2021/11/25 10:59:47;;;;;;;20.25;11.07;;;;;;;10.38;90.38;98142.44;5073352;28;20072;-94
2021/11/25 11:02:28;;;;;;;24.80;10.63;;;;;;;10.35;89.56;98121.31;5073084;28;20068;-95
2021/11/25 11:04:55;;;;;;;19.27;10.48;;;;;;;10.70;89.15;98149.25;5073577;28;20045;-94
2021/11/25 11:07:26;;;;;;;21.80;10.80;;;;;;;10.63;89.43;98131.78;5072044;28;20522;-94
2021/11/25 11:09:53;;;;;;;21.15;10.73;;;;;;;10.59;90.42;98122.19;5072046;28;20497;-95
2021/11/25 11:21:27;;;;;;;23.17;11.75;;;;;;;10.45;89.04;98117.38;5115368;27;20391;-94
2021/11/25 11:23:53;;;;;;;21.73;11.00;;;;;;;10.43;89.24;98114.78;5113578;28;20036;-94
2021/11/25 11:26:20;;;;;;;20.40;11.13;;;;;;;10.56;89.67;98131.16;5113931;28;20043;-95
2021/11/25 11:28:46;;;;;;;20.95;10.45;;;;;;;10.54;88.35;98106.41;5113278;28;20508;-95
2021/11/25 11:31:12;;;;;;;19.42;10.35;;;;;;;10.56;87.82;98090.38;5113495;28;20044;-96
2021/11/25 11:33:39;;;;;;;20.27;10.55;;;;;;;10.45;89.03;98086.38;5114170;28;20097;-95
2021/11/25 11:36:05;;;;;;;23.20;12.13;;;;;;;10.16;90.49;98091.84;5114233;28;20047;-95
2021/11/25 11:38:35;;;;;;;23.08;12.30;;;;;;;10.18;91.96;98103.28;5113866;28;20566;-95
2021/11/25 11:41:02;;;;;;;24.10;11.43;;;;;;;10.19;91.88;98078.44;5113114;28;20046;-94
2021/11/25 11:43:29;;;;;;;22.73;10.82;;;;;;;10.36;91.32;98062.75;5112543;28;20044;-95
2021/11/25 11:45:57;;;;;;;22.23;10.98;;;;;;;10.53;91.36;98053.31;5112986;28;20074;-95
2021/11/25 11:48:24;;;;;;;22.00;11.07;;;;;;;10.42;89.55;98041.28;5113402;28;20051;-94